Flight Track Log - Related Links

Times and Time Zones

All times are in EDT time to prevent confusion due to time zone crossing. See the ACA7033 flight status page for this flight to view local times or setup timezone preferences in your user account.

Time Position Orientation Groundspeed Altitude Reporting Facility
EDT Latitude Longitude Course Direction KTS MPH feet Rate Location/Type
Fri 01:54:37 PM 35.8864 -78.7711 25° Northeast 171 197 1,500  Level Washington Center
Fri 01:55:14 PM 35.9119 -78.7567 25° Northeast 170 196 2,900 2,640 Climbing Washington Center
Fri 01:56:17 PM 35.9653 -78.7897 333° Northwest 251 289 5,900 3,387 Climbing Washington Center
Fri 01:57:18 PM 35.9794 -78.8800 281° West 261 300 9,900 2,876 Climbing Washington Center
Fri 01:58:18 PM 35.9953 -78.9833 281° West 282 325 11,700 2,380 Climbing Washington Center
Fri 01:59:19 PM 36.0128 -79.1047 280° West 327 376 14,700 3,074 Climbing Washington Center
Fri 02:00:19 PM 36.0300 -79.2289 280° West 372 428 17,900 2,797 Climbing Washington Center
Fri 02:01:17 PM 36.0828 -79.3444 299° West 378 435 20,200 2,390 Climbing Washington Center
Fri 02:02:17 PM 36.1853 -79.3983 337° Northwest 361 415 22,600 2,132 Climbing Washington Center
Fri 02:03:18 PM 36.2694 -79.4408 338° Northwest 374 430 24,500 2,016 Climbing Washington Center
Fri 02:04:19 PM 36.3925 -79.5064 337° Northwest 401 461 26,700 1,240 Climbing Washington Center
Fri 02:05:19 PM 36.4947 -79.5683 334° Northwest 406 467 27,000 150 Climbing Washington Center
Fri 02:06:19 PM 36.5992 -79.6306 334° Northwest 406 467 27,000  Level Washington Center
Fri 02:07:17 PM 36.6931 -79.6872 334° Northwest 406 467 27,000  Level Washington Center
Fri 02:08:18 PM 36.7975 -79.7472 335° Northwest 411 473 27,000  Level Washington Center
Fri 02:09:19 PM 36.8997 -79.8100 334° Northwest 411 473 27,000  Level Washington Center
Fri 02:10:19 PM 37.0039 -79.8728 334° Northwest 411 473 27,000  Level Washington Center
Fri 02:11:17 PM 37.1100 -79.9336 335° Northwest 417 480 27,000  Level Washington Center
Fri 02:12:17 PM 37.2244 -80.0053 334° Northwest 417 480 27,000  Level Washington Center
Fri 02:13:18 PM 37.3331 -80.0558 340° North 417 480 27,000  Level Washington Center
Fri 02:14:18 PM 37.4508 -80.0811 350° North 417 480 27,000  Level Washington Center
Fri 02:15:18 PM 37.5719 -80.0831 359° North 424 488 27,000  Level Washington Center
Fri 02:16:19 PM 37.6928 -80.0850 359° North 424 488 27,000  Level Washington Center
Fri 02:17:17 PM 37.8117 -80.0842 360° North 424 488 27,000  Level Washington Center
Fri 02:18:17 PM 37.9222 -80.0856 359° North 424 488 27,000 -99 Level Washington Center
Fri 02:19:18 PM 38.0406 -80.0478 14° North 424 488 26,800 -590 Descending Washington Center
Fri 02:20:19 PM 38.1608 -80.0075 15° North 429 494 25,800 -1,200 Descending Washington Center
Fri 02:21:18 PM 38.2794 -79.9561 19° North 442 509 24,400 -900 Descending Washington Center
Fri 02:22:19 PM 38.4131 -79.8950 20° North 455 524 24,000 -202 Descending Washington Center
Fri 02:23:17 PM 38.5353 -79.8572 14° North 455 524 24,000  Level Washington Center
Fri 02:24:17 PM 38.6619 -79.8139 15° North 445 512 24,000 -298 Level Washington Center
Fri 02:25:18 PM 38.7844 -79.7756 14° North 445 512 23,400 -865 Descending Washington Center
Fri 02:27:45 PM 39.0797 -79.6819 14° North 444 511 21,000 -696 Descending Cleveland Center
Fri 02:28:45 PM 39.1986 -79.6858 359° North 428 493 21,000  Level Cleveland Center
Fri 02:29:45 PM 39.3175 -79.6897 359° North 418 481 21,000  Level Cleveland Center
Fri 02:30:45 PM 39.4342 -79.6936 359° North 418 481 21,000  Level Cleveland Center
Fri 02:31:45 PM 39.5531 -79.6947 360° North 418 481 21,000  Level Cleveland Center
Fri 02:32:45 PM 39.6719 -79.6986 359° North 423 487 21,000 -950 Level Cleveland Center
Fri 02:33:45 PM 39.7908 -79.7050 358° North 423 487 19,100 -2,450 Descending Cleveland Center
Fri 02:34:45 PM 39.9075 -79.7061 360° North 423 487 16,100 -4,550 Descending Cleveland Center
Fri 02:35:45 PM 40.0181 -79.7128 357° North 413 475 10,000 -3,050 Descending Cleveland Center
Fri 02:36:45 PM 40.1181 -79.7197 357° North 393 452 10,000  Level Cleveland Center
Fri 02:37:45 PM 40.1750 -79.7925 316° Northwest 310 357 10,000  Level Cleveland Center
Fri 02:38:45 PM 40.2256 -79.8653 312° West 282 325 10,000  Level Cleveland Center
Fri 02:39:45 PM 40.2781 -79.9436 311° West 282 325 10,000 -150 Level Cleveland Center
Fri 02:40:45 PM 40.3283 -80.0167 312° West 269 310 9,700 -950 Descending Cleveland Center
Fri 02:41:45 PM 40.3683 -80.0817 309° West 269 310 8,100 -1,750 Descending Cleveland Center
Fri 02:42:45 PM 40.4042 -80.1606 301° West 264 304 6,200 -1,150 Descending Cleveland Center
Fri 02:43:45 PM 40.4169 -80.2503 281° West 252 290 5,800 -400 Descending Cleveland Center
Fri 02:45:00 PM 40.4833 -80.2167 323° Northwest  Level FlightAware Approximate
Fri 02:52:00 PM 40.4915 -80.2329 323° Northwest  Level Estimated
Fri 02:53:00 PM 40.4915 -80.2329 323° Northwest  Level Estimated
Fri 02:54:00 PM 40.4915 -80.2329 323° Northwest  Level Estimated
Fri 02:55:00 PM 40.4915 -80.2329 323° Northwest  Level Estimated

Login

Don't have an account? Register now (free) for customized features, flight alerts, and more!